createdAt,value
2023-04-09T00:00:08.736Z,35.88
2023-04-09T00:02:35.085Z,36.22
2023-04-09T00:05:02.063Z,35.63
2023-04-09T00:07:28.364Z,34.53
2023-04-09T00:09:54.656Z,35.65
2023-04-09T00:12:20.960Z,33.17
2023-04-09T00:14:47.272Z,35.72
2023-04-09T00:17:13.620Z,34.03
2023-04-09T00:19:39.909Z,31.98
2023-04-09T00:22:06.245Z,33.50
2023-04-09T00:24:32.584Z,32.65
2023-04-09T00:26:58.910Z,31.98
2023-04-09T00:29:25.209Z,32.20
2023-04-09T00:31:51.562Z,33.35
2023-04-09T00:34:17.907Z,31.48
2023-04-09T00:36:44.203Z,35.90
2023-04-09T00:39:10.515Z,34.67
2023-04-09T00:41:36.871Z,34.63
2023-04-09T00:44:03.159Z,35.67
2023-04-09T00:46:30.581Z,36.40
2023-04-09T00:48:56.946Z,34.17
2023-04-09T00:51:23.391Z,35.00
2023-04-09T00:53:50.516Z,35.90
2023-04-09T00:56:18.507Z,33.20
2023-04-09T00:58:44.836Z,33.75
2023-04-09T01:01:11.182Z,33.53
2023-04-09T01:03:37.874Z,33.90
2023-04-09T01:06:25.612Z,34.28
2023-04-09T01:09:00.802Z,33.20
2023-04-09T01:11:51.260Z,34.35
2023-04-09T01:14:27.061Z,31.45
2023-04-09T01:17:00.018Z,33.10
2023-04-09T01:19:54.517Z,33.00
2023-04-09T01:22:51.615Z,34.08
2023-04-09T01:25:35.400Z,33.65
2023-04-09T01:28:18.558Z,31.92
2023-04-09T01:30:49.231Z,32.97
2023-04-09T01:33:17.537Z,36.05
2023-04-09T01:35:46.002Z,36.78
2023-04-09T01:38:14.696Z,34.95
2023-04-09T01:40:42.177Z,34.83
2023-04-09T01:43:08.840Z,38.45
2023-04-09T01:45:35.145Z,34.90
2023-04-09T01:48:03.922Z,34.17
2023-04-09T01:50:30.563Z,35.08
2023-04-09T01:52:57.010Z,36.15
2023-04-09T01:55:23.393Z,39.38
2023-04-09T01:57:49.753Z,36.45
2023-04-09T02:00:16.308Z,36.85
2023-04-09T02:02:48.834Z,36.15
2023-04-09T02:05:19.551Z,34.40
2023-04-09T02:07:49.364Z,37.15
2023-04-09T02:10:16.244Z,35.70
2023-04-09T02:12:48.216Z,37.22
2023-04-09T02:15:15.180Z,33.83
2023-04-09T02:17:41.557Z,36.25
2023-04-09T02:20:08.444Z,36.17
2023-04-09T02:22:34.766Z,36.75
2023-04-09T02:25:01.074Z,36.83
2023-04-09T02:27:27.442Z,36.20
2023-04-09T02:29:53.729Z,34.67
2023-04-09T02:32:20.076Z,35.67
2023-04-09T02:34:46.395Z,35.50
2023-04-09T02:37:12.704Z,34.63
2023-04-09T02:39:39.070Z,34.00
2023-04-09T02:42:05.408Z,34.83
2023-04-09T02:44:31.706Z,35.28
2023-04-09T02:46:58.035Z,34.47
2023-04-09T02:49:24.401Z,34.55
2023-04-09T02:51:50.744Z,35.17
2023-04-09T02:54:17.049Z,33.45
2023-04-09T02:56:43.390Z,33.65
2023-04-09T02:59:09.690Z,33.85
2023-04-09T03:01:36.067Z,33.35
2023-04-09T03:04:02.547Z,32.47
2023-04-09T03:06:28.974Z,33.40
2023-04-09T03:08:55.378Z,32.80
2023-04-09T03:11:21.713Z,34.53
2023-04-09T03:13:48.101Z,32.95
2023-04-09T03:16:14.442Z,34.33
2023-04-09T03:18:40.793Z,32.85
2023-04-09T03:21:08.321Z,30.92
2023-04-09T03:23:35.247Z,32.70
2023-04-09T03:26:05.889Z,34.50
2023-04-09T03:28:32.444Z,33.17
2023-04-09T03:30:58.811Z,33.00
2023-04-09T03:33:25.189Z,34.58
2023-04-09T03:35:52.091Z,37.15
2023-04-09T03:38:18.425Z,33.50
2023-04-09T03:40:44.776Z,35.38
2023-04-09T03:43:11.084Z,37.47
2023-04-09T03:45:37.433Z,49.28
2023-04-09T03:48:03.944Z,52.20
2023-04-09T03:50:30.362Z,53.55
2023-04-09T03:52:56.679Z,57.33
2023-04-09T03:55:23.132Z,60.83
2023-04-09T03:57:49.422Z,57.10
2023-04-09T04:00:15.875Z,59.75
2023-04-09T04:02:42.445Z,59.85
2023-04-09T04:05:09.034Z,61.22
2023-04-09T04:07:35.347Z,64.32
2023-04-09T04:10:04.509Z,64.93
2023-04-09T04:12:31.747Z,61.17
2023-04-09T04:14:58.365Z,60.20
2023-04-09T04:17:24.706Z,65.22
2023-04-09T04:19:51.061Z,59.70
2023-04-09T04:22:17.387Z,61.55
2023-04-09T04:24:43.677Z,64.90
2023-04-09T04:27:10.009Z,60.85
2023-04-09T04:29:36.322Z,61.47
2023-04-09T04:32:02.815Z,63.13
2023-04-09T04:34:29.212Z,63.35
2023-04-09T04:36:55.505Z,64.68
2023-04-09T04:39:21.823Z,67.53
2023-04-09T04:41:48.121Z,63.75
2023-04-09T04:44:14.436Z,61.15
2023-04-09T04:46:40.744Z,62.35
2023-04-09T04:49:07.033Z,63.78
2023-04-09T04:51:33.369Z,57.50
2023-04-09T04:53:59.663Z,62.25
2023-04-09T04:56:26.081Z,59.85
2023-04-09T04:58:52.594Z,62.90
2023-04-09T05:01:19.170Z,56.20
2023-04-09T05:03:45.608Z,56.85
2023-04-09T05:06:12.056Z,63.75
2023-04-09T05:08:38.351Z,59.08
2023-04-09T05:11:04.719Z,58.95
2023-04-09T05:13:31.018Z,59.58
2023-04-09T05:15:57.341Z,62.35
2023-04-09T05:18:23.651Z,59.38
2023-04-09T05:20:49.962Z,58.17
2023-04-09T05:23:16.276Z,60.10
2023-04-09T05:25:42.637Z,60.63
2023-04-09T05:28:08.954Z,62.13
2023-04-09T05:30:35.275Z,60.65
2023-04-09T05:33:01.637Z,58.60
2023-04-09T05:35:27.985Z,60.08
2023-04-09T05:37:54.284Z,59.05
2023-04-09T05:40:20.663Z,59.45
2023-04-09T05:42:46.975Z,57.72
2023-04-09T05:45:13.282Z,57.75
2023-04-09T05:47:39.640Z,61.10
2023-04-09T05:50:06.332Z,60.78
2023-04-09T05:52:32.660Z,58.55
2023-04-09T05:54:58.945Z,57.80
2023-04-09T05:57:25.264Z,56.47
2023-04-09T05:59:51.557Z,58.22
2023-04-09T06:02:17.927Z,58.90
2023-04-09T06:04:44.312Z,54.53
2023-04-09T06:07:10.662Z,52.63
2023-04-09T06:09:36.972Z,52.00
2023-04-09T06:12:03.571Z,50.75
2023-04-09T06:14:30.195Z,51.03
2023-04-09T06:16:58.923Z,52.15
2023-04-09T06:19:25.238Z,54.92
2023-04-09T06:21:51.559Z,54.63
2023-04-09T06:24:17.862Z,52.22
2023-04-09T06:26:44.205Z,51.25
2023-04-09T06:29:10.506Z,51.25
2023-04-09T06:31:36.908Z,49.60
2023-04-09T06:34:03.429Z,50.58
2023-04-09T06:36:29.732Z,48.00
2023-04-09T06:38:56.239Z,46.53
2023-04-09T06:41:23.489Z,48.10
2023-04-09T06:43:49.961Z,49.30
2023-04-09T06:46:16.477Z,49.75
2023-04-09T06:48:43.172Z,49.92
2023-04-09T06:51:09.490Z,46.55
2023-04-09T06:53:35.826Z,46.47
2023-04-09T06:56:02.166Z,43.78
2023-04-09T06:58:28.485Z,45.80
2023-04-09T07:00:54.938Z,48.53
2023-04-09T07:03:21.517Z,45.60
2023-04-09T07:05:47.930Z,43.03
2023-04-09T07:08:14.994Z,42.63
2023-04-09T07:10:41.381Z,41.30
2023-04-09T07:13:07.708Z,40.53
2023-04-09T07:15:34.121Z,41.72
2023-04-09T07:18:00.468Z,40.35
2023-04-09T07:20:26.976Z,41.00
2023-04-09T07:22:53.309Z,40.95
2023-04-09T07:25:19.786Z,42.13
2023-04-09T07:27:46.174Z,41.08
2023-04-09T07:30:12.698Z,44.75
2023-04-09T07:32:39.077Z,41.35
2023-04-09T07:35:08.575Z,41.72
2023-04-09T07:37:35.639Z,40.58
2023-04-09T07:40:02.200Z,39.42
2023-04-09T07:42:28.583Z,39.78
2023-04-09T07:44:54.941Z,38.58
2023-04-09T07:47:21.565Z,38.25
2023-04-09T07:49:47.856Z,37.00
2023-04-09T07:52:14.191Z,37.45
2023-04-09T07:54:40.620Z,37.78
2023-04-09T07:57:07.254Z,36.97
2023-04-09T07:59:36.649Z,34.90
2023-04-09T08:02:03.120Z,38.83
2023-04-09T08:04:29.702Z,34.72
2023-04-09T08:06:56.091Z,34.25
2023-04-09T08:09:22.807Z,34.72
2023-04-09T08:11:49.912Z,35.08
2023-04-09T08:14:17.747Z,34.70
2023-04-09T08:16:46.338Z,34.17
2023-04-09T08:19:13.564Z,32.47
2023-04-09T08:21:40.909Z,36.83
2023-04-09T08:24:07.230Z,36.78
2023-04-09T08:26:33.525Z,36.00
2023-04-09T08:28:59.842Z,35.38
2023-04-09T08:31:26.351Z,34.08
2023-04-09T08:33:52.787Z,32.17
2023-04-09T08:36:19.986Z,32.97
2023-04-09T08:38:46.326Z,32.72
2023-04-09T08:41:26.362Z,30.55
2023-04-09T08:43:58.324Z,30.48
2023-04-09T08:46:25.855Z,30.95
2023-04-09T08:48:52.620Z,30.50
2023-04-09T08:51:21.438Z,29.95
2023-04-09T08:54:04.007Z,30.17
2023-04-09T08:56:31.055Z,28.58
2023-04-09T08:58:57.383Z,29.27
2023-04-09T09:01:28.785Z,28.02
2023-04-09T09:04:00.412Z,27.40
2023-04-09T09:06:28.754Z,28.15
2023-04-09T09:09:09.122Z,26.13
2023-04-09T09:11:46.129Z,26.98
2023-04-09T09:14:17.090Z,26.08
2023-04-09T09:17:02.720Z,23.80
2023-04-09T09:19:31.338Z,23.92
2023-04-09T09:21:59.036Z,24.13
2023-04-09T09:24:25.393Z,22.02
2023-04-09T09:26:52.498Z,22.23
2023-04-09T09:29:18.841Z,22.48
2023-04-09T09:31:49.544Z,21.70
2023-04-09T09:34:17.689Z,21.65
2023-04-09T09:36:44.849Z,22.15
2023-04-09T09:39:12.003Z,21.83
2023-04-09T09:41:43.177Z,19.70
2023-04-09T09:44:10.814Z,21.17
2023-04-09T09:46:41.697Z,20.52
2023-04-09T09:49:09.166Z,19.08
2023-04-09T09:51:40.141Z,19.48
2023-04-09T09:54:08.078Z,20.55
2023-04-09T09:56:39.246Z,21.33
2023-04-09T09:59:21.869Z,19.33
2023-04-09T10:01:51.748Z,18.52
2023-04-09T10:04:19.977Z,17.38
2023-04-09T10:06:48.076Z,16.92
2023-04-09T10:09:14.432Z,16.40
2023-04-09T10:11:41.069Z,16.30
2023-04-09T10:14:07.488Z,15.77
2023-04-09T10:16:33.948Z,15.20
2023-04-09T10:19:01.285Z,16.67
2023-04-09T10:21:39.531Z,14.38
2023-04-09T10:24:08.475Z,12.65
2023-04-09T10:26:36.543Z,12.85
2023-04-09T10:29:07.894Z,12.30
2023-04-09T10:32:03.196Z,15.00
2023-04-09T10:34:29.552Z,14.60
2023-04-09T10:36:57.887Z,12.05
2023-04-09T10:39:27.966Z,12.57
2023-04-09T10:41:55.960Z,12.07
2023-04-09T10:44:23.429Z,11.50
2023-04-09T10:46:49.923Z,12.25
2023-04-09T10:49:19.259Z,11.20
2023-04-09T10:52:07.921Z,13.52
2023-04-09T10:54:35.183Z,12.15
2023-04-09T10:57:07.271Z,12.50
2023-04-09T10:59:34.553Z,12.70
2023-04-09T11:02:00.976Z,13.35
2023-04-09T11:04:39.144Z,13.20
2023-04-09T11:07:06.609Z,11.95
2023-04-09T11:09:36.351Z,12.25
2023-04-09T11:12:02.669Z,11.57
2023-04-09T11:14:29.436Z,9.00
2023-04-09T11:16:55.884Z,8.30
2023-04-09T11:19:23.115Z,7.47
2023-04-09T11:21:50.110Z,9.32
2023-04-09T11:24:18.742Z,8.43
2023-04-09T11:26:45.143Z,9.15
2023-04-09T11:29:11.477Z,10.43
2023-04-09T11:31:37.844Z,11.18
2023-04-09T11:34:04.187Z,11.82
2023-04-09T11:36:30.575Z,9.95
2023-04-09T11:38:56.877Z,8.93
2023-04-09T11:41:52.480Z,9.65
2023-04-09T11:46:47.080Z,10.45
2023-04-09T11:49:13.570Z,10.52
2023-04-09T11:51:39.996Z,10.63
2023-04-09T11:54:06.746Z,10.07
2023-04-09T11:56:34.797Z,10.10
2023-04-09T11:59:01.839Z,11.55
2023-04-09T12:01:32.149Z,11.68
2023-04-09T12:03:59.423Z,12.98
2023-04-09T12:06:26.630Z,12.20
2023-04-09T12:08:54.140Z,12.55
2023-04-09T12:11:20.541Z,12.40
2023-04-09T12:13:46.875Z,12.55
2023-04-09T12:16:13.710Z,12.57
2023-04-09T12:18:40.663Z,13.40
2023-04-09T12:21:06.992Z,13.68
2023-04-09T12:23:33.297Z,12.85
2023-04-09T12:25:59.844Z,13.05
2023-04-09T12:28:26.734Z,13.55
2023-04-09T12:30:53.256Z,12.73
2023-04-09T12:33:19.892Z,12.30
2023-04-09T12:38:14.332Z,14.10
2023-04-09T12:40:40.656Z,13.80
2023-04-09T12:43:06.989Z,14.60
2023-04-09T12:45:33.427Z,13.77
2023-04-09T12:47:59.765Z,13.95
2023-04-09T12:50:26.108Z,12.93
2023-04-09T12:52:52.443Z,12.60
2023-04-09T12:55:18.785Z,13.00
2023-04-09T12:57:45.867Z,12.52
2023-04-09T13:00:13.035Z,12.65
2023-04-09T13:02:39.547Z,12.80
2023-04-09T13:05:06.102Z,12.75
2023-04-09T13:07:32.446Z,12.45
2023-04-09T13:09:58.846Z,12.57
2023-04-09T13:12:25.251Z,12.43
2023-04-09T13:14:53.804Z,12.95
2023-04-09T13:17:20.400Z,13.73
2023-04-09T13:19:46.774Z,12.63
2023-04-09T13:22:13.170Z,12.48
2023-04-09T13:24:39.459Z,12.25
2023-04-09T13:27:06.662Z,12.57
2023-04-09T13:29:33.022Z,13.63
2023-04-09T13:31:59.364Z,13.65
2023-04-09T13:34:25.661Z,12.55
2023-04-09T13:36:52.036Z,11.65
2023-04-09T13:39:18.337Z,11.80
2023-04-09T13:41:44.743Z,13.93
2023-04-09T13:44:11.082Z,14.15
2023-04-09T13:46:37.474Z,13.13
2023-04-09T13:49:03.867Z,13.43
2023-04-09T13:51:30.245Z,13.35
2023-04-09T13:53:56.575Z,12.57
2023-04-09T13:56:23.097Z,13.40
2023-04-09T13:58:49.432Z,12.95
2023-04-09T14:01:15.868Z,12.57
2023-04-09T14:03:42.294Z,12.88
2023-04-09T14:06:08.722Z,13.10
2023-04-09T14:08:35.958Z,12.90
2023-04-09T14:11:03.050Z,13.88
2023-04-09T14:13:29.667Z,12.90
2023-04-09T14:15:57.063Z,13.00
2023-04-09T14:18:24.299Z,12.25
2023-04-09T14:20:50.665Z,12.00
2023-04-09T14:23:17.015Z,11.52
2023-04-09T14:25:44.184Z,11.43
2023-04-09T14:28:10.563Z,11.70
2023-04-09T14:30:36.879Z,12.35
2023-04-09T14:33:03.337Z,11.55
2023-04-09T14:35:29.750Z,12.15
2023-04-09T14:37:56.061Z,11.60
2023-04-09T14:40:22.414Z,11.15
2023-04-09T14:42:48.711Z,10.82
2023-04-09T14:45:14.994Z,11.57
2023-04-09T14:47:41.332Z,12.60
2023-04-09T14:50:07.933Z,12.00
2023-04-09T14:52:34.279Z,16.85
2023-04-09T14:55:00.580Z,10.50
2023-04-09T14:57:26.870Z,11.27
2023-04-09T14:59:53.189Z,10.70
2023-04-09T15:02:19.575Z,11.57
2023-04-09T15:04:46.147Z,12.05
2023-04-09T15:07:12.492Z,11.80
2023-04-09T15:09:38.822Z,11.18
2023-04-09T15:12:05.155Z,12.38
2023-04-09T15:14:31.478Z,12.15
2023-04-09T15:16:57.789Z,12.20
2023-04-09T15:19:24.096Z,11.57
2023-04-09T15:21:50.410Z,11.32
2023-04-09T15:24:16.697Z,11.70
2023-04-09T15:26:43.016Z,12.35
2023-04-09T15:29:09.585Z,12.43
2023-04-09T15:31:35.985Z,13.02
2023-04-09T15:34:02.331Z,11.75
2023-04-09T15:36:28.641Z,11.85
2023-04-09T15:38:55.247Z,11.98
2023-04-09T15:41:21.745Z,11.95
2023-04-09T15:43:48.052Z,11.80
2023-04-09T15:46:14.448Z,12.20
2023-04-09T15:48:40.823Z,11.77
2023-04-09T15:51:07.332Z,13.00
2023-04-09T15:53:33.827Z,12.25
2023-04-09T15:56:00.169Z,11.68
2023-04-09T15:58:26.470Z,12.55
2023-04-09T16:00:52.834Z,12.88
2023-04-09T16:03:19.352Z,12.57
2023-04-09T16:05:47.409Z,12.43
2023-04-09T16:08:13.909Z,13.10
2023-04-09T16:10:40.210Z,12.02
2023-04-09T16:13:06.534Z,12.23
2023-04-09T16:15:32.906Z,12.60
2023-04-09T16:17:59.263Z,12.73
2023-04-09T16:20:25.618Z,12.90
2023-04-09T16:22:51.938Z,11.45
2023-04-09T16:25:18.245Z,12.95
2023-04-09T16:27:44.555Z,11.07
2023-04-09T16:30:11.373Z,12.73
2023-04-09T16:32:37.748Z,12.98
2023-04-09T16:35:04.298Z,13.23
2023-04-09T16:37:30.612Z,12.02
2023-04-09T16:39:57.146Z,13.30
2023-04-09T16:42:23.743Z,13.43
2023-04-09T16:44:50.042Z,13.13
2023-04-09T16:47:16.362Z,12.25
2023-04-09T16:49:42.671Z,11.45
2023-04-09T16:52:08.979Z,12.40
2023-04-09T16:54:35.293Z,13.88
2023-04-09T16:57:01.609Z,14.20
2023-04-09T16:59:27.920Z,12.68
2023-04-09T17:01:54.327Z,12.55
2023-04-09T17:04:20.852Z,12.07
2023-04-09T17:06:47.182Z,14.55
2023-04-09T17:09:13.517Z,16.83
2023-04-09T17:11:39.848Z,18.33
2023-04-09T17:14:06.156Z,16.10
2023-04-09T17:16:32.506Z,20.63
2023-04-09T17:18:58.821Z,27.25
2023-04-09T17:21:25.185Z,27.40
2023-04-09T17:23:51.502Z,23.65
2023-04-09T17:26:17.830Z,30.63
2023-04-09T17:28:44.316Z,29.67
2023-04-09T17:31:14.869Z,30.40
2023-04-09T17:33:43.678Z,26.10
2023-04-09T17:36:09.991Z,26.33
2023-04-09T17:38:36.330Z,28.65
2023-04-09T17:41:02.640Z,26.90
2023-04-09T17:43:28.940Z,24.88
2023-04-09T17:45:55.292Z,18.77
2023-04-09T17:48:21.613Z,19.67
2023-04-09T17:50:47.911Z,17.05
2023-04-09T17:53:14.199Z,16.58
2023-04-09T17:55:46.018Z,19.27
2023-04-09T17:58:12.341Z,19.70
2023-04-09T18:00:39.731Z,18.10
2023-04-09T18:03:06.167Z,22.00
2023-04-09T18:05:34.085Z,20.75
2023-04-09T18:08:00.508Z,22.70
2023-04-09T18:10:26.829Z,20.90
2023-04-09T18:12:53.129Z,19.05
2023-04-09T18:15:19.580Z,18.75
2023-04-09T18:17:45.996Z,24.95
2023-04-09T18:20:12.424Z,21.48
2023-04-09T18:22:38.759Z,17.23
2023-04-09T18:25:05.423Z,17.27
2023-04-09T18:27:31.723Z,17.00
2023-04-09T18:29:58.066Z,18.83
2023-04-09T18:32:24.389Z,19.17
2023-04-09T18:34:51.436Z,19.40
2023-04-09T18:37:18.573Z,18.35
2023-04-09T18:39:45.386Z,20.40
2023-04-09T18:42:11.775Z,16.90
2023-04-09T18:44:38.347Z,16.85
2023-04-09T18:47:05.907Z,17.38
2023-04-09T18:49:33.356Z,16.88
2023-04-09T18:51:59.679Z,18.17
2023-04-09T18:54:26.060Z,18.13
2023-04-09T18:56:52.474Z,18.50
2023-04-09T18:59:18.777Z,19.35
2023-04-09T19:01:45.189Z,19.20
2023-04-09T19:04:11.722Z,18.40
2023-04-09T19:06:38.090Z,18.92
2023-04-09T19:09:05.699Z,18.88
2023-04-09T19:11:32.030Z,18.60
2023-04-09T19:13:58.343Z,18.60
2023-04-09T19:16:24.677Z,17.92
2023-04-09T19:18:51.201Z,18.35
2023-04-09T19:21:17.791Z,18.13
2023-04-09T19:23:44.182Z,21.92
2023-04-09T19:26:10.501Z,22.88
2023-04-09T19:28:36.795Z,22.58
2023-04-09T19:31:05.893Z,20.00
2023-04-09T19:33:32.223Z,20.27
2023-04-09T19:35:58.551Z,19.58
2023-04-09T19:38:24.881Z,22.25
2023-04-09T19:40:51.235Z,20.38
2023-04-09T19:43:17.562Z,21.05
2023-04-09T19:45:43.868Z,20.67
2023-04-09T19:48:10.242Z,22.92
2023-04-09T19:50:39.680Z,22.42
2023-04-09T19:53:06.866Z,21.00
2023-04-09T19:55:33.981Z,23.20
2023-04-09T19:58:00.797Z,24.00
2023-04-09T20:00:27.555Z,21.60
2023-04-09T20:02:54.944Z,22.52
2023-04-09T20:05:21.375Z,21.55
2023-04-09T20:07:48.472Z,24.63
2023-04-09T20:10:15.330Z,23.73
2023-04-09T20:12:42.064Z,25.02
2023-04-09T20:15:09.935Z,24.83
2023-04-09T20:17:36.466Z,25.23
2023-04-09T20:20:02.971Z,23.55
2023-04-09T20:22:29.265Z,25.90
2023-04-09T20:24:55.578Z,23.90
2023-04-09T20:27:21.960Z,28.75
2023-04-09T20:29:49.356Z,27.65
2023-04-09T20:32:15.709Z,28.13
2023-04-09T20:34:42.116Z,27.75
2023-04-09T20:37:08.417Z,27.40
2023-04-09T20:39:34.718Z,27.67
2023-04-09T20:42:01.011Z,28.30
2023-04-09T20:44:28.370Z,29.10
2023-04-09T20:46:55.043Z,27.42
2023-04-09T20:49:21.337Z,29.80
2023-04-09T20:51:47.661Z,27.85
2023-04-09T20:54:14.028Z,30.02
2023-04-09T20:56:40.349Z,29.98
2023-04-09T20:59:06.687Z,32.38
2023-04-09T21:01:33.119Z,29.00
2023-04-09T21:03:59.652Z,28.67
2023-04-09T21:06:26.077Z,29.90
2023-04-09T21:08:52.528Z,29.83
2023-04-09T21:11:19.245Z,27.77
2023-04-09T21:16:14.799Z,30.67
2023-04-09T21:18:41.166Z,27.88
2023-04-09T21:21:07.504Z,28.92
2023-04-09T21:23:33.870Z,28.65
2023-04-09T21:26:00.174Z,28.83
2023-04-09T21:28:26.481Z,28.63
2023-04-09T21:30:52.845Z,31.35
2023-04-09T21:33:19.221Z,32.97
2023-04-09T21:35:45.519Z,30.92
2023-04-09T21:38:11.841Z,29.83
2023-04-09T21:40:38.140Z,30.98
2023-04-09T21:43:04.472Z,31.52
2023-04-09T21:45:30.766Z,33.17
2023-04-09T21:47:57.134Z,36.22
2023-04-09T21:50:23.512Z,36.65
2023-04-09T21:52:49.837Z,36.47
2023-04-09T21:55:16.281Z,40.35
2023-04-09T21:57:42.589Z,40.33
2023-04-09T22:00:09.323Z,39.42
2023-04-09T22:02:35.800Z,42.58
2023-04-09T22:05:02.312Z,43.38
2023-04-09T22:07:28.754Z,43.78
2023-04-09T22:09:57.381Z,43.88
2023-04-09T22:12:23.816Z,43.63
2023-04-09T22:14:50.159Z,45.03
2023-04-09T22:17:16.462Z,42.88
2023-04-09T22:19:42.770Z,44.55
2023-04-09T22:22:09.067Z,44.50
2023-04-09T22:24:35.382Z,43.22
2023-04-09T22:27:01.696Z,42.28
2023-04-09T22:29:28.755Z,41.80
2023-04-09T22:31:55.487Z,37.85
2023-04-09T22:34:22.282Z,38.03
2023-04-09T22:36:48.869Z,37.72
2023-04-09T22:39:15.466Z,35.42
2023-04-09T22:41:41.772Z,35.83
2023-04-09T22:44:08.085Z,35.88
2023-04-09T22:46:34.488Z,36.30
2023-04-09T22:49:05.014Z,37.22
2023-04-09T22:51:32.102Z,37.92
2023-04-09T22:53:58.443Z,40.22
2023-04-09T22:56:24.743Z,39.28
2023-04-09T22:58:51.163Z,42.35
2023-04-09T23:01:17.812Z,42.60
2023-04-09T23:03:44.237Z,42.55
2023-04-09T23:06:10.576Z,41.38
2023-04-09T23:08:38.789Z,44.17
2023-04-09T23:11:06.537Z,46.50
2023-04-09T23:13:32.902Z,48.55
2023-04-09T23:15:59.310Z,52.92
2023-04-09T23:18:25.656Z,58.10
2023-04-09T23:20:51.980Z,62.30
2023-04-09T23:23:18.308Z,58.20
2023-04-09T23:25:44.622Z,53.78
2023-04-09T23:28:10.923Z,52.42
2023-04-09T23:30:37.280Z,45.83
2023-04-09T23:33:03.721Z,43.58
2023-04-09T23:35:30.140Z,39.05
2023-04-09T23:37:56.487Z,36.33
2023-04-09T23:40:22.801Z,37.60
2023-04-09T23:42:49.216Z,34.53
2023-04-09T23:45:15.712Z,33.97
2023-04-09T23:47:42.064Z,34.22
2023-04-09T23:50:08.821Z,34.80
2023-04-09T23:52:37.674Z,34.25
2023-04-09T23:55:05.343Z,34.92
2023-04-09T23:57:31.652Z,35.78
2023-04-09T23:59:57.985Z,34.85
